Logan, UT

2:29 PM MDT on July 26, 2016 (GMT -0600)
Logan 1000N 600W | | Change Station

Elev 4482 ft 41.75 °N, 111.85 °W | Updated 2 minutes ago

Clear
Clear
92.1 °F
Feels Like 90 °F
N
1.2
Wind Variable Wind from SW

Today
High -- | Low -- °F
--% Chance of Precip.
Yesterday
High -- | Low -- °F
Precip. -- in
Pressure 29.88 in
Visibility 10.0 miles
Clouds Clear
Heat Index 90 °F
Dew Point 59 °F
Humidity 27%
Rainfall Not available.
Snow Depth Not available.
6:16 AM 8:50 PM
Waning Gibbous, 51% visible
METAR KLGU 261951Z AUTO 00000KT 10SM CLR 33/04 A3005 RMK AO2 SLP117 T03330039
Pressure 29.88 in
Visibility 10.0 miles
Clouds Clear
Heat Index 90 °F
Dew Point 59 °F
Humidity 27%
Rainfall Not available.
Snow Depth Not available.
6:16 AM 8:50 PM
Waning Gibbous, 51% visible
METAR KLGU 261951Z AUTO 00000KT 10SM CLR 33/04 A3005 RMK AO2 SLP117 T03330039

10-Day Weather Forecast

Almanac

Astronomy

Jul. 26, 2016 Rise Set
Actual Time
Civil Twilight
Nautical Twilight
Astronomical Twilight
Moon
Length of Visible Light
Length of Day
Tomorrow will be .
, % of the Moon is Illuminated

Today's Extremes

State Highs State Lows

Community

WunderPhotos

Upload Photos

1,927,678 photos uploaded!

WunderBlog® & News

Nearby

Air Quality

  Air Quality AQ Index Pollutant
Not available.

Snow Depth

Station Depth Elevation

Earthquake Activity

City Distance Mag. Time & Date
Minimum magnitude displayed is 2.5.

Coastal Water Temperatures

Place Temperature

Stations

Nearby Weather Stations

Station Location Temp. Windchill Dew Point Humidity Wind Precip. Elev Updated Type
                   

Watches & Warnings

There are currently no watches in effect.